createdAt,value
2023-05-21T00:00:53.126Z,0.67
2023-05-21T00:02:17.046Z,0.92
2023-05-21T00:03:37.538Z,0.62
2023-05-21T00:05:14.712Z,0.71
2023-05-21T00:06:32.256Z,0.82
2023-05-21T00:08:03.427Z,0.43
2023-05-21T00:09:22.708Z,0.6
2023-05-21T00:10:42.579Z,0.58
2023-05-21T00:12:13.470Z,0.62
2023-05-21T00:13:39.208Z,0.49
2023-05-21T00:14:59.752Z,0.45
2023-05-21T00:16:19.595Z,0.41
2023-05-21T00:17:38.841Z,0.48
2023-05-21T00:18:58.094Z,0.64
2023-05-21T00:20:29.993Z,0.54
2023-05-21T00:21:56.227Z,0.45
2023-05-21T00:23:20.459Z,0.25
2023-05-21T00:24:52.182Z,0.42
2023-05-21T00:26:16.198Z,0.38
2023-05-21T00:27:35.111Z,0.47
2023-05-21T00:29:00.105Z,0.38
2023-05-21T00:30:22.303Z,0.35
2023-05-21T00:31:45.119Z,0.55
2023-05-21T00:33:07.767Z,0.47
2023-05-21T00:34:45.261Z,0.29
2023-05-21T00:36:07.713Z,0.26
2023-05-21T00:37:26.960Z,0.44
2023-05-21T00:38:54.084Z,0.36
2023-05-21T00:40:16.872Z,0.38
2023-05-21T00:41:43.138Z,0.34
2023-05-21T00:43:06.285Z,0.33
2023-05-21T00:44:28.816Z,0.33
2023-05-21T00:45:47.194Z,0.15
2023-05-21T00:47:08.860Z,0.19
2023-05-21T00:48:26.653Z,0.18
2023-05-21T00:49:54.098Z,0.43
2023-05-21T00:51:13.399Z,0.23
2023-05-21T00:52:40.575Z,0.48
2023-05-21T00:54:06.782Z,0.47
2023-05-21T00:55:29.914Z,0.28
2023-05-21T00:56:57.467Z,0.47
2023-05-21T00:58:21.104Z,0.24
2023-05-21T00:59:42.605Z,0.36
2023-05-21T01:01:06.789Z,0.14
2023-05-21T01:02:41.036Z,0.31
2023-05-21T01:04:09.084Z,0.4
2023-05-21T01:05:49.115Z,0.36
2023-05-21T01:07:10.092Z,0.25
2023-05-21T01:08:50.823Z,0.41
2023-05-21T01:10:15.980Z,0.25
2023-05-21T01:11:44.436Z,0.25
2023-05-21T01:13:19.268Z,0.36
2023-05-21T01:14:48.617Z,0.37
2023-05-21T01:16:10.634Z,0.24
2023-05-21T01:17:38.042Z,0.09
2023-05-21T01:19:01.468Z,0.13
2023-05-21T01:20:35.183Z,0.26
2023-05-21T01:22:03.859Z,0.2
2023-05-21T01:23:21.388Z,0.32
2023-05-21T01:24:48.010Z,0.34
2023-05-21T01:26:05.169Z,0.42
2023-05-21T01:27:26.334Z,0.22
2023-05-21T01:28:50.420Z,0.17
2023-05-21T01:30:17.861Z,0.27
2023-05-21T01:31:44.179Z,0.16
2023-05-21T01:33:22.039Z,0.09
2023-05-21T01:34:46.401Z,0.31
2023-05-21T01:36:16.385Z,0.2
2023-05-21T01:37:44.640Z,0.19
2023-05-21T01:39:01.344Z,0.18
2023-05-21T01:40:22.093Z,0.24
2023-05-21T01:41:41.540Z,0.33
2023-05-21T01:43:01.880Z,0.36
2023-05-21T01:44:24.374Z,0.17
2023-05-21T01:45:46.398Z,0.16
2023-05-21T01:47:05.382Z,0.29
2023-05-21T01:48:48.413Z,0.35
2023-05-21T01:50:05.355Z,0.3
2023-05-21T01:51:24.564Z,0.33
2023-05-21T01:52:46.967Z,0.28
2023-05-21T01:54:16.080Z,0.23
2023-05-21T01:55:39.096Z,0.24
2023-05-21T01:56:58.218Z,0.42
2023-05-21T01:58:19.041Z,0.32
2023-05-21T01:59:38.199Z,0.21
2023-05-21T02:01:08.808Z,0.19
2023-05-21T02:02:33.298Z,0.24
2023-05-21T02:04:06.795Z,0.22
2023-05-21T02:05:26.751Z,0.56
2023-05-21T02:06:48.144Z,0.4
2023-05-21T02:08:11.153Z,0.44
2023-05-21T02:09:34.724Z,0.24
2023-05-21T02:10:53.540Z,0.25
2023-05-21T02:12:17.469Z,0.31
2023-05-21T02:13:39.511Z,0.36
2023-05-21T02:15:08.864Z,0.22
2023-05-21T02:16:29.453Z,0.38
2023-05-21T02:17:52.413Z,0.2
2023-05-21T02:19:20.553Z,0.47
2023-05-21T02:20:49.443Z,0.43
2023-05-21T02:22:09.492Z,0.37
2023-05-21T02:23:26.854Z,0.63
2023-05-21T02:25:00.967Z,0.64
2023-05-21T02:26:27.649Z,0.57
2023-05-21T02:27:47.839Z,0.72
2023-05-21T02:29:14.756Z,0.59
2023-05-21T02:32:13.619Z,0.37
2023-05-21T02:33:43.040Z,0.46
2023-05-21T02:35:04.929Z,0.44
2023-05-21T02:36:24.513Z,0.52
2023-05-21T02:37:46.924Z,0.59
2023-05-21T02:39:08.991Z,0.61
2023-05-21T02:40:35.064Z,0.72
2023-05-21T02:41:54.462Z,0.93
2023-05-21T02:43:15.995Z,0.66
2023-05-21T02:44:34.008Z,0.45
2023-05-21T02:46:09.994Z,0.35
2023-05-21T02:47:32.958Z,0.59
2023-05-21T02:50:29.457Z,0.53
2023-05-21T02:52:04.439Z,0.5
2023-05-21T02:53:40.208Z,0.69
2023-05-21T02:55:01.182Z,0.68
2023-05-21T02:56:20.471Z,0.67
2023-05-21T02:57:44.762Z,0.61
2023-05-21T02:59:06.808Z,0.2
2023-05-21T03:00:27.198Z,0.51
2023-05-21T03:01:45.803Z,0.48
2023-05-21T03:03:08.725Z,0.47
2023-05-21T03:04:29.380Z,0.37
2023-05-21T03:05:55.757Z,0.68
2023-05-21T03:07:26.014Z,0.5
2023-05-21T03:08:52.403Z,0.52
2023-05-21T03:10:12.905Z,0.6
2023-05-21T03:11:39.745Z,0.48
2023-05-21T03:13:02.177Z,0.38
2023-05-21T03:14:20.552Z,0.27
2023-05-21T03:15:39.993Z,0.3
2023-05-21T03:16:59.795Z,0.41
2023-05-21T03:18:18.657Z,0.36
2023-05-21T03:19:43.124Z,0.36
2023-05-21T03:21:07.698Z,0.12
2023-05-21T03:22:28.750Z,0.31
2023-05-21T03:23:59.147Z,0.53
2023-05-21T03:25:28.031Z,0.39
2023-05-21T03:26:52.426Z,0.3
2023-05-21T03:28:21.627Z,0.26
2023-05-21T03:29:42.773Z,0.09
2023-05-21T03:31:08.125Z,0.39
2023-05-21T03:32:26.561Z,0.37
2023-05-21T03:33:55.683Z,0.25
2023-05-21T03:35:18.773Z,0.42
2023-05-21T03:36:37.746Z,0.44
2023-05-21T03:37:59.804Z,0.23
2023-05-21T03:39:31.206Z,0.4
2023-05-21T03:40:49.607Z,0.57
2023-05-21T03:42:12.591Z,0.36
2023-05-21T03:43:30.372Z,0.21
2023-05-21T03:44:58.723Z,0.48
2023-05-21T03:46:18.932Z,0.58
2023-05-21T03:47:40.417Z,0.48
2023-05-21T03:49:01.922Z,0.53
2023-05-21T03:50:23.811Z,0.29
2023-05-21T03:51:42.348Z,0.16
2023-05-21T03:53:04.789Z,0.32
2023-05-21T03:54:31.872Z,0.13
2023-05-21T03:55:58.134Z,0.21
2023-05-21T03:57:23.820Z,0.09
2023-05-21T03:58:52.310Z,0.23
2023-05-21T04:00:21.825Z,0.24
2023-05-21T04:01:55.322Z,0.27
2023-05-21T04:03:17.149Z,0.1
2023-05-21T04:04:39.057Z,0.2
2023-05-21T04:06:03.074Z,0.09
2023-05-21T04:07:21.207Z,0.33
2023-05-21T04:08:43.450Z,0.37
2023-05-21T04:10:03.608Z,0.17
2023-05-21T04:11:23.815Z,0
2023-05-21T04:12:57.244Z,0.19
2023-05-21T04:14:15.638Z,0.32
2023-05-21T04:15:35.254Z,0.5
2023-05-21T04:16:57.656Z,0.53
2023-05-21T04:18:21.476Z,0
2023-05-21T04:19:42.966Z,0.11
2023-05-21T04:21:08.887Z,0
2023-05-21T04:22:26.043Z,0.26
2023-05-21T04:23:58.787Z,0
2023-05-21T04:25:20.718Z,0
2023-05-21T04:26:41.102Z,0
2023-05-21T04:27:58.429Z,0
2023-05-21T04:29:18.560Z,0
2023-05-21T04:30:38.067Z,0
2023-05-21T04:31:59.106Z,0
2023-05-21T04:33:17.707Z,0.18
2023-05-21T04:34:50.399Z,0.25
2023-05-21T04:36:11.065Z,0.3
2023-05-21T04:37:36.916Z,0.14
2023-05-21T04:40:25.213Z,0.27
2023-05-21T04:41:53.622Z,0.44
2023-05-21T04:43:20.679Z,0.57
2023-05-21T04:44:42.905Z,0.64
2023-05-21T04:46:00.627Z,0.49
2023-05-21T04:47:20.836Z,0.32
2023-05-21T04:48:46.424Z,0.26
2023-05-21T04:50:10.561Z,0.48
2023-05-21T04:51:31.625Z,0.91
2023-05-21T04:53:04.825Z,0.68
2023-05-21T04:54:25.922Z,0.98
2023-05-21T04:55:46.005Z,1.16
2023-05-21T04:57:13.971Z,0.61
2023-05-21T04:58:36.867Z,0.75
2023-05-21T05:00:04.580Z,1.1
2023-05-21T05:01:33.018Z,0.79
2023-05-21T05:02:52.382Z,0.87
2023-05-21T05:04:10.089Z,0.97
2023-05-21T05:05:31.970Z,0.68
2023-05-21T05:06:53.325Z,0.85
2023-05-21T05:08:15.912Z,0.99
2023-05-21T05:09:33.985Z,0.62
2023-05-21T05:11:01.731Z,0.6
2023-05-21T05:12:33.606Z,1.32
2023-05-21T05:13:54.814Z,0.95
2023-05-21T05:15:15.587Z,0.81
2023-05-21T05:16:41.618Z,0.83
2023-05-21T05:17:59.561Z,0.57
2023-05-21T05:19:27.002Z,0.83
2023-05-21T05:20:49.971Z,0.96
2023-05-21T05:24:16.304Z,1.15
2023-05-21T05:25:33.780Z,1.2
2023-05-21T05:27:10.103Z,1.07
2023-05-21T05:28:41.899Z,1
2023-05-21T05:30:16.047Z,0.68
2023-05-21T05:31:38.440Z,1.1
2023-05-21T05:33:02.039Z,0.94
2023-05-21T05:34:23.969Z,1.65
2023-05-21T05:37:29.600Z,1.36
2023-05-21T05:38:55.767Z,1.49
2023-05-21T05:40:18.487Z,1.28
2023-05-21T05:41:48.595Z,0.93
2023-05-21T05:43:21.100Z,0.89
2023-05-21T05:44:45.684Z,1.35
2023-05-21T05:46:06.130Z,1.84
2023-05-21T05:47:32.693Z,1.7
2023-05-21T05:48:57.558Z,1.14
2023-05-21T05:50:21.127Z,0.67
2023-05-21T05:51:43.074Z,1.18
2023-05-21T05:53:04.888Z,1.08
2023-05-21T05:54:34.251Z,1.57
2023-05-21T05:55:55.185Z,1.19
2023-05-21T05:57:31.869Z,1.68
2023-05-21T05:59:05.386Z,2.12
2023-05-21T06:00:28.186Z,1.14
2023-05-21T06:01:52.075Z,1.43
2023-05-21T06:03:13.302Z,1.41
2023-05-21T06:04:40.862Z,1.56
2023-05-21T06:06:04.923Z,2.08
2023-05-21T06:07:38.439Z,2.96
2023-05-21T06:08:58.767Z,2.39
2023-05-21T06:10:22.332Z,1.72
2023-05-21T06:11:47.252Z,1.73
2023-05-21T06:13:06.512Z,1.7
2023-05-21T06:14:32.816Z,2.23
2023-05-21T06:15:53.596Z,2.3
2023-05-21T06:17:16.258Z,2.8
2023-05-21T06:18:33.930Z,1.91
2023-05-21T06:19:51.064Z,0.94
2023-05-21T06:21:07.716Z,1.17
2023-05-21T06:22:30.721Z,1.94
2023-05-21T06:23:56.420Z,1.4
2023-05-21T06:25:23.665Z,2.42
2023-05-21T06:26:50.146Z,1.11
2023-05-21T06:28:12.196Z,2.19
2023-05-21T06:29:33.902Z,1.5
2023-05-21T06:31:02.935Z,2.35
2023-05-21T06:33:59.384Z,1.34
2023-05-21T06:35:33.362Z,1.35
2023-05-21T06:37:03.705Z,2.39
2023-05-21T06:38:25.448Z,3.03
2023-05-21T06:39:47.947Z,2.7
2023-05-21T06:41:15.185Z,2.86
2023-05-21T06:44:16.119Z,2.09
2023-05-21T06:45:38.367Z,2.29
2023-05-21T06:47:02.018Z,1.75
2023-05-21T06:48:35.314Z,1.36
2023-05-21T06:49:58.081Z,1.27
2023-05-21T06:51:15.855Z,1.47
2023-05-21T06:52:36.865Z,1
2023-05-21T06:53:58.502Z,2.57
2023-05-21T06:55:22.994Z,0.91
2023-05-21T06:56:44.099Z,2.14
2023-05-21T06:58:12.639Z,3.47
2023-05-21T06:59:38.873Z,2.55
2023-05-21T07:01:08.783Z,1.75
2023-05-21T07:02:42.277Z,2.18
2023-05-21T07:04:06.207Z,3.32
2023-05-21T07:05:29.278Z,2.25
2023-05-21T07:06:56.676Z,1.33
2023-05-21T07:08:19.945Z,3.29
2023-05-21T07:09:48.985Z,2.41
2023-05-21T07:11:07.478Z,1.5
2023-05-21T07:12:29.809Z,2.04
2023-05-21T07:13:52.189Z,0.47
2023-05-21T07:15:11.888Z,0.6
2023-05-21T07:16:29.405Z,0.6
2023-05-21T07:17:52.573Z,1.94
2023-05-21T07:19:16.483Z,1.6
2023-05-21T07:20:43.910Z,1.07
2023-05-21T07:22:00.979Z,0.97
2023-05-21T07:23:20.241Z,1.63
2023-05-21T07:24:40.034Z,1.04
2023-05-21T07:26:01.093Z,1.76
2023-05-21T07:27:27.798Z,0.9
2023-05-21T07:28:58.889Z,2.24
2023-05-21T07:30:27.064Z,0.81
2023-05-21T07:31:49.010Z,0.45
2023-05-21T07:33:08.461Z,0.87
2023-05-21T07:34:31.199Z,0.67
2023-05-21T07:35:48.048Z,1
2023-05-21T07:37:17.733Z,0.97
2023-05-21T07:38:45.875Z,1.19
2023-05-21T07:40:10.496Z,1.04
2023-05-21T07:41:32.016Z,1.02
2023-05-21T07:43:09.159Z,1.22
2023-05-21T07:44:29.096Z,2.66
2023-05-21T07:45:54.477Z,0.92
2023-05-21T07:47:25.694Z,1.96
2023-05-21T07:48:48.757Z,1.83
2023-05-21T07:50:09.228Z,1.82
2023-05-21T07:51:36.808Z,1.75
2023-05-21T07:53:06.049Z,1.79
2023-05-21T07:54:30.145Z,2.31
2023-05-21T07:55:56.014Z,2.6
2023-05-21T07:57:26.717Z,1.08
2023-05-21T07:58:58.376Z,1.41
2023-05-21T08:00:22.875Z,1.58
2023-05-21T08:01:50.107Z,1.51
2023-05-21T08:03:14.943Z,1.35
2023-05-21T08:04:41.075Z,1.43
2023-05-21T08:06:14.147Z,1.3
2023-05-21T08:07:36.350Z,1.05
2023-05-21T08:08:57.147Z,1.1
2023-05-21T08:10:20.144Z,1.05
2023-05-21T08:11:41.432Z,1.14
2023-05-21T08:13:01.453Z,0.83
2023-05-21T08:14:30.949Z,0.96
2023-05-21T08:15:53.238Z,1
2023-05-21T08:17:22.102Z,0.46
2023-05-21T08:18:44.458Z,1.22
2023-05-21T08:20:14.956Z,1.65
2023-05-21T08:21:35.222Z,1.11
2023-05-21T08:22:56.818Z,0.99
2023-05-21T08:24:15.521Z,0.9
2023-05-21T08:25:43.672Z,0.66
2023-05-21T08:27:01.519Z,0.56
2023-05-21T08:28:31.617Z,1.36
2023-05-21T08:29:53.489Z,0.59
2023-05-21T08:31:12.211Z,1.77
2023-05-21T08:32:38.229Z,1.61
2023-05-21T08:33:57.671Z,0.67
2023-05-21T08:35:28.887Z,1.17
2023-05-21T08:36:50.743Z,0.69
2023-05-21T08:38:12.656Z,0.76
2023-05-21T08:39:36.662Z,3.14
2023-05-21T08:40:58.371Z,1.77
2023-05-21T08:42:22.734Z,1.75
2023-05-21T08:43:50.420Z,1.73
2023-05-21T08:45:10.911Z,1.79
2023-05-21T08:46:33.896Z,0.97
2023-05-21T08:47:58.768Z,2.28
2023-05-21T08:49:21.595Z,2.19
2023-05-21T08:50:43.434Z,1.51
2023-05-21T08:52:07.407Z,1.48
2023-05-21T08:53:29.170Z,1.2
2023-05-21T08:54:44.397Z,1.07
2023-05-21T08:56:06.626Z,1.2
2023-05-21T08:57:25.418Z,1.09
2023-05-21T08:58:50.818Z,1.43
2023-05-21T09:00:12.625Z,1.18
2023-05-21T09:01:30.805Z,1.82
2023-05-21T09:02:48.690Z,1.08
2023-05-21T09:04:19.995Z,2.23
2023-05-21T09:05:32.365Z,1.54
2023-05-21T09:06:54.378Z,1.53
2023-05-21T09:08:11.564Z,1.58
2023-05-21T09:09:36.046Z,1.49
2023-05-21T09:11:05.593Z,2.41
2023-05-21T09:12:25.511Z,4.18
2023-05-21T09:13:50.838Z,2.17
2023-05-21T09:15:08.477Z,6.35
2023-05-21T09:16:26.454Z,5.43
2023-05-21T09:17:46.288Z,2.9
2023-05-21T09:19:07.016Z,1.51
2023-05-21T09:20:30.022Z,1.2
2023-05-21T09:21:52.976Z,2.06
2023-05-21T09:23:16.321Z,1.68
2023-05-21T09:24:40.883Z,1.51
2023-05-21T09:26:00.096Z,1.6
2023-05-21T09:27:24.941Z,1.24
2023-05-21T09:29:02.881Z,1.75
2023-05-21T09:30:38.954Z,1.52
2023-05-21T09:32:02.321Z,0.9
2023-05-21T09:33:20.728Z,1.24
2023-05-21T09:34:40.636Z,1.87
2023-05-21T09:36:06.324Z,1.54
2023-05-21T09:37:44.239Z,1.61
2023-05-21T09:39:09.932Z,3.8
2023-05-21T09:40:30.263Z,4.29
2023-05-21T09:41:54.310Z,1.62
2023-05-21T09:43:20.714Z,0.75
2023-05-21T09:44:40.265Z,1.48
2023-05-21T09:46:07.493Z,3.77
2023-05-21T09:47:25.828Z,1.01
2023-05-21T09:48:48.114Z,1.21
2023-05-21T09:50:22.176Z,1.31
2023-05-21T09:51:41.756Z,1.21
2023-05-21T09:53:10.305Z,1.34
2023-05-21T09:54:31.620Z,1.17
2023-05-21T09:56:07.004Z,1.27
2023-05-21T09:57:32.412Z,1.6
2023-05-21T09:58:52.379Z,1.14
2023-05-21T10:00:08.522Z,1.3
2023-05-21T10:01:28.562Z,1.38
2023-05-21T10:02:51.813Z,1.35
